TimeCST,TemperatureF,Dew PointF,Humidity,Sea Level PressureIn,VisibilityMPH,Wind Direction,Wind SpeedMPH,Gust SpeedMPH,PrecipitationIn,Events,Conditions,WindDirDegrees,DateUTC
12:55 AM,40.3,38.7,94,30.21,10.0,North,5.8,-,N/A,,Clear,10,2012-11-09 06:55:00
1:55 AM,39.7,38.1,94,30.22,10.0,North,5.8,-,N/A,,Clear,10,2012-11-09 07:55:00
3:55 AM,38.8,37.4,95,30.22,10.0,North,6.9,-,N/A,,Clear,360,2012-11-09 09:55:00
4:55 AM,38.7,37.6,96,30.24,10.0,North,5.8,-,N/A,,Clear,360,2012-11-09 10:55:00
5:55 AM,38.3,37.4,97,30.25,10.0,North,6.9,-,N/A,,Clear,360,2012-11-09 11:55:00
6:55 AM,41.9,40.5,95,30.28,10.0,NNE,5.8,-,N/A,,Clear,20,2012-11-09 12:55:00
7:55 AM,53.2,46.4,78,30.29,10.0,NE,4.6,-,N/A,,Clear,50,2012-11-09 13:55:00
8:25 AM,57.2,46.4,67,30.30,10.0,ENE,6.9,-,N/A,,Light Drizzle,70,2012-11-09 14:25:00
8:35 AM,59.0,46.4,63,30.30,10.0,ENE,5.8,-,N/A,,Clear,60,2012-11-09 14:35:00
8:46 AM,59.0,46.4,63,30.30,10.0,ENE,5.8,-,N/A,Rain,Light Rain,70,2012-11-09 14:46:00
8:55 AM,60.6,46.4,59,30.30,10.0,ENE,5.8,-,0.00,Rain,Light Rain,60,2012-11-09 14:55:00
9:03 AM,60.8,46.4,59,30.30,10.0,East,6.9,-,N/A,,Clear,80,2012-11-09 15:03:00
9:40 AM,64.4,46.4,52,30.30,10.0,ENE,4.6,-,N/A,,Light Drizzle,60,2012-11-09 15:40:00
9:55 AM,64.8,44.6,48,30.31,10.0,East,5.8,-,0.00,,Light Drizzle,90,2012-11-09 15:55:00
10:06 AM,64.4,44.6,49,30.31,10.0,Variable,4.6,-,N/A,,Clear,0,2012-11-09 16:06:00
10:23 AM,64.4,46.4,52,30.30,10.0,Variable,4.6,-,N/A,Rain,Light Rain,0,2012-11-09 16:23:00
10:39 AM,66.2,46.4,49,30.30,10.0,Variable,3.5,-,N/A,,Clear,0,2012-11-09 16:39:00
10:41 AM,66.2,46.4,49,30.30,10.0,ESE,5.8,-,N/A,Rain,Light Rain,110,2012-11-09 16:41:00
10:55 AM,66.7,47.3,50,30.29,10.0,Variable,4.6,-,0.00,Rain,Light Rain,0,2012-11-09 16:55:00
11:26 AM,68.0,46.4,46,30.28,10.0,SE,9.2,-,N/A,,Clear,140,2012-11-09 17:26:00
11:55 AM,68.0,47.1,47,30.27,10.0,SSE,9.2,-,0.00,,Clear,150,2012-11-09 17:55:00
12:50 PM,68.0,48.2,49,30.24,10.0,SSE,9.2,-,N/A,,Light Drizzle,160,2012-11-09 18:50:00
12:55 PM,67.5,48.7,51,30.24,10.0,SSE,9.2,-,0.00,,Light Drizzle,160,2012-11-09 18:55:00
1:00 PM,68.0,48.2,49,30.24,10.0,SSE,9.2,-,N/A,,Clear,160,2012-11-09 19:00:00
1:55 PM,66.7,48.7,52,30.22,10.0,South,10.4,-,0.00,,Clear,170,2012-11-09 19:55:00
2:34 PM,66.2,48.2,52,30.21,10.0,SSE,9.2,-,N/A,Rain,Light Rain,150,2012-11-09 20:34:00
2:45 PM,66.2,48.2,52,30.21,10.0,South,9.2,-,N/A,,Clear,170,2012-11-09 20:45:00
2:55 PM,66.2,48.7,53,30.21,10.0,South,6.9,-,0.00,,Clear,190,2012-11-09 20:55:00
3:40 PM,66.2,48.2,52,30.22,10.0,South,5.8,-,N/A,,Light Drizzle,170,2012-11-09 21:40:00
3:45 PM,66.2,48.2,52,30.22,10.0,South,5.8,-,N/A,,Clear,170,2012-11-09 21:45:00
3:55 PM,65.1,49.5,57,30.22,10.0,South,5.8,-,0.00,,Clear,180,2012-11-09 21:55:00
4:19 PM,64.4,48.2,56,30.22,10.0,SSW,3.5,-,N/A,,Light Drizzle,200,2012-11-09 22:19:00
4:28 PM,64.4,50.0,59,30.22,10.0,SSW,3.5,-,N/A,,Clear,200,2012-11-09 22:28:00
4:55 PM,63.0,48.2,59,30.23,10.0,Calm,Calm,-,0.00,,Clear,0,2012-11-09 22:55:00
5:55 PM,56.5,49.6,78,30.23,10.0,Calm,Calm,-,N/A,,Clear,0,2012-11-09 23:55:00
6:55 PM,51.3,48.4,90,30.24,10.0,North,3.5,-,N/A,,Clear,10,2012-11-10 00:55:00
7:55 PM,48.9,47.1,93,30.24,10.0,North,3.5,-,N/A,,Clear,360,2012-11-10 01:55:00
8:55 PM,47.5,45.9,94,30.25,10.0,North,4.6,-,N/A,,Clear,360,2012-11-10 02:55:00
9:55 PM,45.9,44.6,95,30.26,10.0,North,4.6,-,N/A,,Clear,350,2012-11-10 03:55:00
10:55 PM,44.4,43.3,96,30.25,10.0,North,4.6,-,N/A,,Clear,10,2012-11-10 04:55:00
11:55 PM,43.7,42.6,96,30.25,10.0,North,5.8,-,N/A,,Clear,10,2012-11-10 05:55:00